createdAt,value
2023-01-19T00:01:40.639Z,0.50
2023-01-19T00:04:07.412Z,0.50
2023-01-19T00:06:34.084Z,0.50
2023-01-19T00:09:00.635Z,0.60
2023-01-19T00:11:27.254Z,0.60
2023-01-19T00:13:53.773Z,0.60
2023-01-19T00:16:22.386Z,0.70
2023-01-19T00:18:50.776Z,0.60
2023-01-19T00:21:17.944Z,0.70
2023-01-19T00:23:47.292Z,0.80
2023-01-19T00:26:16.145Z,0.70
2023-01-19T00:28:45.933Z,0.80
2023-01-19T00:31:12.627Z,0.70
2023-01-19T00:33:39.222Z,0.80
2023-01-19T00:36:06.004Z,0.80
2023-01-19T00:38:32.583Z,0.70
2023-01-19T00:40:59.194Z,0.70
2023-01-19T00:43:25.743Z,0.70
2023-01-19T00:45:52.587Z,0.70
2023-01-19T00:48:19.249Z,0.70
2023-01-19T00:50:45.967Z,0.70
2023-01-19T00:53:12.465Z,0.70
2023-01-19T00:55:39.051Z,0.70
2023-01-19T00:58:07.117Z,0.60
2023-01-19T01:00:33.727Z,0.60
2023-01-19T01:03:00.588Z,0.60
2023-01-19T01:05:27.547Z,0.50
2023-01-19T01:07:54.094Z,0.50
2023-01-19T01:10:21.619Z,0.50
2023-01-19T01:12:57.049Z,0.50
2023-01-19T01:15:26.378Z,0.50
2023-01-19T01:17:53.181Z,0.50
2023-01-19T01:20:21.604Z,0.50
2023-01-19T01:22:49.469Z,0.50
2023-01-19T01:25:17.076Z,0.50
2023-01-19T01:27:43.932Z,0.40
2023-01-19T01:30:12.175Z,0.40
2023-01-19T01:32:39.181Z,0.40
2023-01-19T01:35:06.456Z,0.30
2023-01-19T01:37:33.016Z,0.30
2023-01-19T01:39:59.512Z,0.30
2023-01-19T01:42:29.773Z,0.30
2023-01-19T01:44:57.785Z,0.30
2023-01-19T01:47:30.523Z,0.40
2023-01-19T01:50:14.823Z,0.40
2023-01-19T01:53:07.721Z,0.40
2023-01-19T01:55:35.223Z,0.40
2023-01-19T01:58:05.560Z,0.30
2023-01-19T02:00:50.671Z,0.30
2023-01-19T02:03:17.555Z,0.30
2023-01-19T02:05:44.439Z,0.30
2023-01-19T02:08:36.337Z,0.40
2023-01-19T02:11:22.157Z,0.40
2023-01-19T02:13:48.906Z,0.40
2023-01-19T02:16:16.173Z,0.50
2023-01-19T02:18:43.194Z,0.50
2023-01-19T02:21:20.071Z,0.60
2023-01-19T02:23:49.010Z,0.70
2023-01-19T02:26:17.480Z,0.80
2023-01-19T02:28:46.494Z,0.80
2023-01-19T02:31:15.052Z,0.90
2023-01-19T02:33:41.649Z,0.90
2023-01-19T02:36:09.770Z,0.90
2023-01-19T02:38:36.912Z,0.90
2023-01-19T02:41:04.179Z,0.80
2023-01-19T02:43:31.934Z,0.90
2023-01-19T02:45:58.533Z,0.80
2023-01-19T02:48:25.159Z,0.80
2023-01-19T02:50:54.101Z,0.80
2023-01-19T02:53:32.485Z,0.80
2023-01-19T02:56:08.097Z,0.80
2023-01-19T02:59:13.163Z,0.80
2023-01-19T03:01:56.010Z,0.80
2023-01-19T03:04:42.807Z,0.80
2023-01-19T03:07:11.787Z,0.80
2023-01-19T03:09:44.009Z,0.80
2023-01-19T03:12:16.179Z,0.80
2023-01-19T03:14:44.963Z,0.80
2023-01-19T03:17:12.591Z,0.80
2023-01-19T03:19:43.102Z,0.80
2023-01-19T03:22:14.719Z,0.80
2023-01-19T03:24:43.231Z,0.80
2023-01-19T03:27:17.442Z,0.80
2023-01-19T03:29:46.718Z,0.80
2023-01-19T03:32:15.843Z,0.80
2023-01-19T03:34:43.102Z,0.80
2023-01-19T03:37:11.004Z,0.80
2023-01-19T03:39:37.599Z,0.90
2023-01-19T03:42:05.820Z,0.90
2023-01-19T03:44:34.757Z,0.90
2023-01-19T03:47:02.013Z,0.90
2023-01-19T03:49:30.477Z,0.90
2023-01-19T03:51:58.804Z,0.90
2023-01-19T03:54:25.667Z,0.80
2023-01-19T03:56:55.123Z,0.80
2023-01-19T03:59:21.869Z,0.90
2023-01-19T04:01:48.787Z,0.90
2023-01-19T04:04:18.370Z,0.90
2023-01-19T04:06:44.905Z,0.90
2023-01-19T04:09:11.446Z,0.90
2023-01-19T04:11:37.996Z,0.90
2023-01-19T04:14:04.633Z,0.90
2023-01-19T04:16:31.135Z,1.00
2023-01-19T04:18:57.828Z,0.90
2023-01-19T04:21:24.418Z,0.90
2023-01-19T04:23:51.328Z,0.90
2023-01-19T04:26:18.110Z,0.90
2023-01-19T04:28:44.715Z,0.90
2023-01-19T04:31:11.621Z,0.90
2023-01-19T04:33:38.219Z,1.00
2023-01-19T04:36:05.123Z,1.00
2023-01-19T04:38:31.701Z,1.00
2023-01-19T04:40:58.163Z,1.00
2023-01-19T04:43:24.720Z,1.10
2023-01-19T04:45:51.715Z,1.20
2023-01-19T04:48:18.867Z,1.30
2023-01-19T04:50:48.341Z,1.30
2023-01-19T04:53:16.223Z,1.30
2023-01-19T04:55:42.823Z,1.40
2023-01-19T04:58:09.726Z,1.40
2023-01-19T05:00:36.289Z,1.40
2023-01-19T05:03:03.623Z,1.40
2023-01-19T05:05:30.538Z,1.40
2023-01-19T05:07:57.139Z,1.50
2023-01-19T05:10:23.841Z,1.50
2023-01-19T05:12:51.216Z,1.50
2023-01-19T05:15:17.750Z,1.50
2023-01-19T05:17:44.438Z,1.60
2023-01-19T05:20:15.726Z,1.60
2023-01-19T05:22:42.895Z,1.60
2023-01-19T05:25:09.637Z,1.50
2023-01-19T05:27:36.649Z,1.50
2023-01-19T05:30:05.035Z,1.60
2023-01-19T05:32:31.548Z,1.50
2023-01-19T05:34:58.149Z,1.60
2023-01-19T05:37:24.730Z,1.60
2023-01-19T05:39:51.380Z,1.60
2023-01-19T05:42:17.897Z,1.70
2023-01-19T05:44:44.424Z,1.70
2023-01-19T05:47:12.458Z,1.70
2023-01-19T05:49:39.020Z,1.70
2023-01-19T05:52:05.577Z,1.80
2023-01-19T05:54:32.115Z,1.70
2023-01-19T05:56:58.681Z,1.80
2023-01-19T05:59:25.268Z,1.80
2023-01-19T06:01:52.243Z,1.90
2023-01-19T06:04:19.890Z,1.90
2023-01-19T06:06:49.935Z,1.90
2023-01-19T06:09:17.320Z,1.90
2023-01-19T06:11:44.571Z,2.00
2023-01-19T06:14:11.302Z,2.00
2023-01-19T06:16:38.084Z,2.00
2023-01-19T06:19:04.734Z,2.00
2023-01-19T06:21:31.527Z,1.90
2023-01-19T06:23:58.820Z,1.90
2023-01-19T06:26:26.165Z,1.80
2023-01-19T06:28:52.763Z,1.80
2023-01-19T06:31:19.505Z,1.70
2023-01-19T06:33:46.063Z,1.70
2023-01-19T06:36:12.682Z,1.70
2023-01-19T06:38:39.251Z,1.60
2023-01-19T06:41:05.830Z,1.60
2023-01-19T06:43:32.520Z,1.60
2023-01-19T06:46:00.512Z,1.40
2023-01-19T06:48:27.205Z,1.40
2023-01-19T06:50:53.751Z,1.30
2023-01-19T06:53:22.156Z,1.20
2023-01-19T06:55:48.821Z,1.20
2023-01-19T06:58:15.650Z,1.10
2023-01-19T07:00:43.018Z,1.00
2023-01-19T07:03:18.088Z,1.00
2023-01-19T07:05:44.798Z,0.90
2023-01-19T07:08:11.489Z,0.90
2023-01-19T07:11:26.317Z,0.80
2023-01-19T07:13:24.718Z,0.80
2023-01-19T07:15:51.432Z,0.80
2023-01-19T07:18:17.991Z,0.80
2023-01-19T07:20:47.925Z,0.80
2023-01-19T07:23:15.371Z,0.80
2023-01-19T07:25:44.662Z,0.80
2023-01-19T07:28:12.864Z,0.80
2023-01-19T07:30:39.479Z,0.80
2023-01-19T07:33:06.117Z,0.80
2023-01-19T07:38:14.149Z,0.80
2023-01-19T07:40:40.833Z,0.80
2023-01-19T07:43:07.433Z,0.80
2023-01-19T07:45:35.258Z,0.80
2023-01-19T07:48:01.983Z,0.80
2023-01-19T07:50:29.271Z,0.70
2023-01-19T07:55:30.304Z,0.70
2023-01-19T07:57:56.989Z,0.60
2023-01-19T08:00:25.301Z,0.70
2023-01-19T08:02:52.075Z,0.70
2023-01-19T08:05:19.141Z,0.80
2023-01-19T08:07:46.297Z,0.80
2023-01-19T08:10:14.269Z,0.80
2023-01-19T08:12:41.925Z,0.80
2023-01-19T08:15:09.455Z,0.90
2023-01-19T08:17:36.575Z,0.90
2023-01-19T08:20:03.309Z,0.90
2023-01-19T08:22:29.836Z,0.90
2023-01-19T08:24:56.450Z,1.00
2023-01-19T08:27:23.048Z,1.00
2023-01-19T08:29:49.736Z,1.00
2023-01-19T08:32:17.020Z,1.10
2023-01-19T08:34:43.711Z,1.10
2023-01-19T08:37:10.328Z,1.20
2023-01-19T08:39:36.978Z,1.20
2023-01-19T08:42:04.118Z,1.20
2023-01-19T08:44:30.771Z,1.30
2023-01-19T08:46:57.387Z,1.30
2023-01-19T08:49:24.043Z,1.30
2023-01-19T08:51:50.585Z,1.30
2023-01-19T08:54:18.718Z,1.30
2023-01-19T08:56:45.392Z,1.30
2023-01-19T08:59:13.271Z,1.40
2023-01-19T09:01:41.336Z,1.40
2023-01-19T09:04:08.505Z,1.50
2023-01-19T09:06:35.118Z,1.50
2023-01-19T09:09:01.894Z,1.50
2023-01-19T09:11:28.701Z,1.60
2023-01-19T09:13:55.563Z,1.70
2023-01-19T09:16:22.297Z,1.70
2023-01-19T09:18:48.934Z,1.80
2023-01-19T09:21:15.510Z,1.90
2023-01-19T09:23:42.372Z,2.00
2023-01-19T09:26:09.843Z,2.00
2023-01-19T09:28:37.567Z,2.10
2023-01-19T09:31:04.900Z,2.30
2023-01-19T09:33:31.666Z,2.20
2023-01-19T09:35:58.524Z,2.30
2023-01-19T09:38:26.019Z,2.30
2023-01-19T09:40:53.852Z,2.30
2023-01-19T09:43:23.657Z,2.30
2023-01-19T09:46:10.443Z,2.40
2023-01-19T09:48:37.319Z,2.40
2023-01-19T09:51:05.072Z,2.40
2023-01-19T09:53:44.069Z,2.50
2023-01-19T09:56:15.071Z,2.60
2023-01-19T09:58:41.770Z,2.60
2023-01-19T10:01:16.085Z,2.60
2023-01-19T10:03:42.865Z,2.60
2023-01-19T10:06:11.696Z,2.60
2023-01-19T10:08:46.499Z,2.70
2023-01-19T10:11:22.752Z,2.60
2023-01-19T10:13:49.657Z,2.60
2023-01-19T10:16:30.554Z,2.70
2023-01-19T10:19:17.043Z,2.70
2023-01-19T10:21:44.839Z,2.70
2023-01-19T10:24:14.617Z,2.70
2023-01-19T10:26:43.888Z,2.70
2023-01-19T10:29:16.514Z,2.70
2023-01-19T10:31:44.209Z,2.70
2023-01-19T10:34:18.068Z,2.70
2023-01-19T10:36:47.504Z,2.70
2023-01-19T10:39:15.928Z,2.50
2023-01-19T10:41:52.854Z,2.50
2023-01-19T10:44:26.521Z,2.50
2023-01-19T10:46:54.475Z,2.50
2023-01-19T10:49:31.539Z,2.60
2023-01-19T10:51:59.065Z,2.60
2023-01-19T10:54:26.640Z,2.60
2023-01-19T10:57:01.409Z,2.70
2023-01-19T10:59:46.860Z,2.70
2023-01-19T11:02:17.336Z,2.70
2023-01-19T11:04:47.274Z,2.80
2023-01-19T11:07:27.945Z,2.80
2023-01-19T11:10:23.029Z,2.80
2023-01-19T11:13:07.502Z,2.90
2023-01-19T11:15:35.939Z,2.80
2023-01-19T11:18:04.489Z,2.90
2023-01-19T11:20:44.035Z,3.00
2023-01-19T11:23:19.714Z,3.00
2023-01-19T11:25:47.479Z,3.00
2023-01-19T11:28:31.565Z,3.00
2023-01-19T11:31:02.651Z,3.10
2023-01-19T11:33:34.489Z,3.10
2023-01-19T11:36:05.803Z,3.10
2023-01-19T11:38:32.505Z,3.20
2023-01-19T11:40:59.654Z,3.30
2023-01-19T11:43:43.378Z,3.40
2023-01-19T11:46:15.281Z,3.40
2023-01-19T11:49:02.607Z,3.50
2023-01-19T11:51:55.762Z,3.60
2023-01-19T11:54:26.938Z,3.60
2023-01-19T11:56:55.648Z,3.60
2023-01-19T11:59:26.637Z,3.70
2023-01-19T12:01:57.370Z,3.70
2023-01-19T12:04:32.674Z,3.70
2023-01-19T12:07:00.038Z,3.80
2023-01-19T12:09:32.728Z,3.80
2023-01-19T12:12:12.277Z,3.80
2023-01-19T12:14:57.887Z,3.90
2023-01-19T12:17:30.333Z,3.90
2023-01-19T12:20:03.533Z,4.20
2023-01-19T12:22:35.072Z,4.90
2023-01-19T12:25:20.239Z,5.60
2023-01-19T12:27:48.114Z,6.20
2023-01-19T12:30:21.003Z,6.10
2023-01-19T12:32:47.867Z,6.50
2023-01-19T12:35:33.288Z,6.80
2023-01-19T12:37:59.791Z,6.50
2023-01-19T12:40:27.799Z,6.40
2023-01-19T12:43:01.603Z,6.60
2023-01-19T12:45:34.983Z,6.10
2023-01-19T12:48:02.671Z,6.30
2023-01-19T12:50:32.049Z,6.30
2023-01-19T12:52:59.896Z,6.00
2023-01-19T12:55:39.124Z,6.10
2023-01-19T12:58:23.669Z,6.00
2023-01-19T13:01:11.289Z,5.80
2023-01-19T13:03:43.775Z,5.80
2023-01-19T13:06:10.550Z,5.70
2023-01-19T13:09:06.204Z,6.10
2023-01-19T13:11:34.556Z,6.00
2023-01-19T13:14:01.348Z,5.40
2023-01-19T13:16:27.912Z,5.40
2023-01-19T13:19:01.795Z,5.60
2023-01-19T13:21:33.973Z,5.60
2023-01-19T13:24:03.887Z,5.70
2023-01-19T13:26:48.764Z,5.90
2023-01-19T13:29:38.580Z,6.60
2023-01-19T13:32:11.651Z,7.10
2023-01-19T13:34:57.499Z,6.80
2023-01-19T13:37:29.716Z,5.90
2023-01-19T13:39:56.672Z,5.40
2023-01-19T13:42:34.106Z,5.40
2023-01-19T13:45:02.073Z,5.40
2023-01-19T13:47:32.609Z,5.50
2023-01-19T13:50:01.110Z,5.30
2023-01-19T13:52:28.697Z,5.20
2023-01-19T13:54:56.321Z,5.10
2023-01-19T13:57:24.276Z,5.00
2023-01-19T14:00:11.888Z,4.80
2023-01-19T14:02:50.336Z,5.00
2023-01-19T14:05:21.749Z,4.80
2023-01-19T14:07:48.626Z,4.90
2023-01-19T14:10:16.582Z,4.70
2023-01-19T14:12:58.202Z,4.60
2023-01-19T14:15:25.776Z,4.50
2023-01-19T14:18:27.972Z,4.30
2023-01-19T14:21:07.426Z,4.40
2023-01-19T14:23:46.876Z,4.30
2023-01-19T14:26:32.391Z,4.40
2023-01-19T14:29:06.876Z,4.40
2023-01-19T14:31:42.180Z,4.40
2023-01-19T14:34:28.605Z,4.50
2023-01-19T14:36:55.296Z,4.40
2023-01-19T14:39:23.366Z,4.40
2023-01-19T14:41:52.678Z,4.30
2023-01-19T14:44:25.558Z,4.40
2023-01-19T14:46:54.548Z,4.20
2023-01-19T14:49:40.233Z,4.30
2023-01-19T14:52:15.593Z,4.30
2023-01-19T14:57:16.504Z,4.30
2023-01-19T14:59:48.231Z,4.40
2023-01-19T15:02:17.164Z,4.30
2023-01-19T15:04:44.167Z,4.40
2023-01-19T15:07:17.619Z,4.40
2023-01-19T15:09:44.331Z,4.40
2023-01-19T15:12:13.223Z,4.40
2023-01-19T15:14:39.971Z,4.40
2023-01-19T15:17:06.598Z,4.40
2023-01-19T15:19:33.854Z,4.20
2023-01-19T15:22:00.514Z,4.20
2023-01-19T15:24:27.163Z,4.30
2023-01-19T15:26:53.861Z,4.40
2023-01-19T15:29:22.758Z,4.30
2023-01-19T15:31:49.451Z,4.30
2023-01-19T15:34:16.202Z,4.30
2023-01-19T15:36:42.915Z,4.10
2023-01-19T15:39:13.098Z,4.10
2023-01-19T15:41:40.137Z,4.00
2023-01-19T15:44:08.520Z,4.00
2023-01-19T15:46:52.681Z,4.00
2023-01-19T15:49:20.485Z,3.90
2023-01-19T15:51:47.173Z,3.90
2023-01-19T15:54:16.740Z,3.90
2023-01-19T15:56:43.510Z,3.90
2023-01-19T15:59:10.119Z,3.90
2023-01-19T16:01:36.904Z,3.80
2023-01-19T16:04:05.118Z,3.80
2023-01-19T16:06:32.434Z,3.80
2023-01-19T16:09:02.543Z,3.80
2023-01-19T16:11:33.211Z,3.80
2023-01-19T16:14:00.129Z,3.80
2023-01-19T16:16:28.137Z,3.80
2023-01-19T16:18:55.290Z,3.80
2023-01-19T16:21:22.511Z,3.80
2023-01-19T16:23:51.597Z,3.80
2023-01-19T16:26:28.774Z,3.70
2023-01-19T16:28:59.152Z,3.70
2023-01-19T16:31:25.857Z,3.60
2023-01-19T16:33:52.502Z,3.50
2023-01-19T16:36:19.990Z,3.50
2023-01-19T16:38:46.660Z,3.50
2023-01-19T16:41:13.264Z,3.60
2023-01-19T16:43:39.857Z,3.60
2023-01-19T16:46:06.552Z,3.60
2023-01-19T16:48:33.216Z,3.60
2023-01-19T16:51:05.446Z,3.60
2023-01-19T16:53:32.783Z,3.60
2023-01-19T16:55:59.450Z,3.60
2023-01-19T16:58:26.127Z,3.50
2023-01-19T17:00:52.978Z,3.50
2023-01-19T17:03:19.681Z,3.60
2023-01-19T17:05:50.601Z,3.50
2023-01-19T17:08:20.607Z,3.50
2023-01-19T17:10:47.754Z,3.50
2023-01-19T17:13:14.344Z,3.60
2023-01-19T17:15:40.924Z,3.60
2023-01-19T17:18:07.596Z,3.60
2023-01-19T17:20:34.285Z,3.60
2023-01-19T17:23:00.898Z,3.50
2023-01-19T17:25:27.860Z,3.50
2023-01-19T17:27:54.481Z,3.40
2023-01-19T17:30:21.164Z,3.40
2023-01-19T17:32:47.752Z,3.40
2023-01-19T17:35:14.440Z,3.40
2023-01-19T17:37:41.022Z,3.40
2023-01-19T17:40:07.979Z,3.40
2023-01-19T17:42:38.236Z,3.30
2023-01-19T17:45:04.972Z,3.30
2023-01-19T17:47:34.535Z,3.30
2023-01-19T17:50:01.189Z,3.30
2023-01-19T17:52:27.838Z,3.20
2023-01-19T17:54:54.528Z,3.20
2023-01-19T17:57:21.111Z,3.10
2023-01-19T17:59:47.894Z,3.10
2023-01-19T18:02:14.656Z,3.10
2023-01-19T18:04:41.418Z,3.20
2023-01-19T18:07:08.066Z,3.10
2023-01-19T18:09:34.776Z,3.20
2023-01-19T18:12:01.529Z,3.10
2023-01-19T18:14:28.265Z,3.20
2023-01-19T18:16:54.823Z,3.10
2023-01-19T18:19:22.435Z,3.20
2023-01-19T18:21:49.055Z,3.10
2023-01-19T18:24:15.756Z,3.10
2023-01-19T18:26:42.871Z,3.00
2023-01-19T18:29:09.501Z,3.00
2023-01-19T18:31:36.249Z,3.00
2023-01-19T18:34:03.194Z,3.00
2023-01-19T18:36:31.939Z,3.00
2023-01-19T18:38:58.546Z,2.90
2023-01-19T18:41:25.130Z,2.90
2023-01-19T18:43:53.543Z,2.80
2023-01-19T18:46:21.210Z,2.70
2023-01-19T18:48:47.834Z,2.70
2023-01-19T18:51:14.988Z,2.60
2023-01-19T18:53:41.833Z,2.60
2023-01-19T18:56:10.827Z,2.60
2023-01-19T18:58:37.922Z,2.50
2023-01-19T19:01:04.950Z,2.50
2023-01-19T19:03:31.471Z,2.40
2023-01-19T19:06:02.054Z,2.40
2023-01-19T19:08:28.775Z,2.30
2023-01-19T19:10:55.369Z,2.30
2023-01-19T19:13:21.976Z,2.30
2023-01-19T19:15:48.592Z,2.30
2023-01-19T19:18:16.176Z,2.20
2023-01-19T19:20:43.309Z,2.10
2023-01-19T19:23:10.547Z,2.00
2023-01-19T19:25:37.375Z,1.90
2023-01-19T19:28:04.278Z,1.90
2023-01-19T19:30:32.512Z,1.80
2023-01-19T19:32:59.722Z,1.80
2023-01-19T19:35:26.348Z,1.70
2023-01-19T19:37:57.188Z,1.80
2023-01-19T19:40:24.571Z,1.70
2023-01-19T19:42:51.105Z,1.70
2023-01-19T19:45:18.655Z,1.70
2023-01-19T19:47:45.328Z,1.70
2023-01-19T19:50:12.138Z,1.60
2023-01-19T19:52:39.628Z,1.60
2023-01-19T19:55:07.201Z,1.60
2023-01-19T19:57:33.871Z,1.60
2023-01-19T20:00:00.358Z,1.60
2023-01-19T20:02:26.864Z,1.60
2023-01-19T20:04:53.439Z,1.70
2023-01-19T20:07:20.010Z,1.60
2023-01-19T20:09:46.531Z,1.60
2023-01-19T20:12:13.048Z,1.50
2023-01-19T20:14:39.579Z,1.50
2023-01-19T20:17:06.128Z,1.40
2023-01-19T20:19:32.790Z,1.40
2023-01-19T20:21:59.409Z,1.40
2023-01-19T20:24:26.026Z,1.40
2023-01-19T20:26:53.092Z,1.40
2023-01-19T20:29:20.086Z,1.30
2023-01-19T20:31:48.695Z,1.30
2023-01-19T20:34:16.462Z,1.30
2023-01-19T20:36:46.679Z,1.40
2023-01-19T20:39:13.227Z,1.30
2023-01-19T20:41:51.073Z,1.30
2023-01-19T20:44:19.773Z,1.20
2023-01-19T20:46:46.773Z,1.30
2023-01-19T20:49:13.370Z,1.30
2023-01-19T20:51:43.376Z,1.40
2023-01-19T20:54:11.121Z,1.50
2023-01-19T20:56:37.952Z,1.60
2023-01-19T20:59:04.493Z,1.70
2023-01-19T21:01:31.247Z,1.70
2023-01-19T21:03:57.844Z,1.70
2023-01-19T21:06:25.086Z,1.70
2023-01-19T21:08:51.853Z,1.70
2023-01-19T21:11:20.759Z,1.80
2023-01-19T21:13:48.108Z,1.70
2023-01-19T21:16:15.483Z,1.70
2023-01-19T21:18:42.131Z,1.60
2023-01-19T21:21:14.968Z,1.70
2023-01-19T21:23:47.782Z,1.70
2023-01-19T21:26:14.893Z,1.70
2023-01-19T21:28:41.508Z,1.70
2023-01-19T21:31:09.902Z,1.70
2023-01-19T21:33:36.513Z,1.60
2023-01-19T21:36:03.093Z,1.60
2023-01-19T21:38:30.134Z,1.70
2023-01-19T21:40:57.395Z,1.60
2023-01-19T21:43:27.605Z,1.60
2023-01-19T21:45:54.131Z,1.60
2023-01-19T21:48:20.817Z,1.60
2023-01-19T21:50:56.125Z,1.70
2023-01-19T21:53:22.659Z,1.60
2023-01-19T21:55:49.193Z,1.60
2023-01-19T21:58:15.792Z,1.60
2023-01-19T22:00:42.359Z,1.60
2023-01-19T22:03:09.111Z,1.60
2023-01-19T22:05:36.999Z,1.60
2023-01-19T22:08:04.244Z,1.70
2023-01-19T22:10:30.748Z,1.70
2023-01-19T22:12:57.340Z,1.70
2023-01-19T22:15:23.874Z,1.60
2023-01-19T22:17:50.406Z,1.60
2023-01-19T22:20:17.108Z,1.70
2023-01-19T22:22:43.663Z,1.70
2023-01-19T22:25:10.230Z,1.70
2023-01-19T22:27:37.430Z,1.70
2023-01-19T22:30:04.110Z,1.70
2023-01-19T22:32:31.304Z,1.70
2023-01-19T22:34:57.885Z,1.80
2023-01-19T22:37:24.537Z,1.80
2023-01-19T22:39:52.565Z,1.80
2023-01-19T22:42:19.124Z,1.80
2023-01-19T22:44:46.734Z,1.80
2023-01-19T22:47:13.283Z,1.80
2023-01-19T22:49:40.563Z,1.80
2023-01-19T22:52:07.180Z,1.70
2023-01-19T22:54:33.772Z,1.70
2023-01-19T22:57:00.466Z,1.70
2023-01-19T22:59:26.987Z,1.60
2023-01-19T23:01:53.795Z,1.70
2023-01-19T23:04:20.386Z,1.70
2023-01-19T23:06:50.291Z,1.70
2023-01-19T23:09:17.133Z,1.60
2023-01-19T23:11:45.157Z,1.60
2023-01-19T23:14:15.624Z,1.60
2023-01-19T23:16:42.212Z,1.50
2023-01-19T23:19:09.957Z,1.50
2023-01-19T23:21:36.892Z,1.40
2023-01-19T23:24:04.277Z,1.40
2023-01-19T23:26:31.408Z,1.40
2023-01-19T23:28:59.704Z,1.30
2023-01-19T23:31:27.704Z,1.30
2023-01-19T23:33:55.278Z,1.30
2023-01-19T23:36:22.715Z,1.20
2023-01-19T23:38:53.213Z,1.20
2023-01-19T23:41:20.465Z,1.20
2023-01-19T23:43:46.965Z,1.20
2023-01-19T23:46:14.332Z,1.10
2023-01-19T23:48:40.877Z,1.00
2023-01-19T23:51:08.574Z,1.00
2023-01-19T23:53:35.452Z,1.00
2023-01-19T23:56:12.054Z,0.90
2023-01-19T23:58:39.025Z,0.90
